Time;durP1;ratioP1;P1;durP2;ratioP2;P2;SDS_P1;SDS_P2;PMS_P1;PMS_P2;Temp;Humidity;BMP_temperature;BMP_pressure;BME280_temperature;BME280_humidity;BME280_pressure;Samples;Min_cycle;Max_cycle;Signal;HPM_P1;HPM_P2
2022/12/11 00:00:44;;;;;;;37.15;19.80;;;;;;;-0.51;95.98;99838.05;1722847;81;25920;-76
2022/12/11 00:03:12;;;;;;;43.25;23.27;;;;;;;-0.50;95.84;99832.30;1722260;82;26613;-76
2022/12/11 00:05:40;;;;;;;43.90;21.50;;;;;;;-0.49;95.89;99829.53;1710505;82;26440;-76
2022/12/11 00:08:06;;;;;;;44.58;20.90;;;;;;;-0.47;95.87;99838.12;1723112;82;25870;-77
2022/12/11 00:10:33;;;;;;;41.63;22.10;;;;;;;-0.46;95.84;99821.38;1722369;82;28296;-76
2022/12/11 00:12:59;;;;;;;46.53;22.70;;;;;;;-0.43;95.91;99825.07;1723366;81;26017;-76
2022/12/11 00:15:27;;;;;;;43.17;20.08;;;;;;;-0.41;95.84;99823.61;1731106;81;25813;-76
2022/12/11 00:17:53;;;;;;;45.98;21.12;;;;;;;-0.38;95.84;99828.58;1716601;82;25778;-76
2022/12/11 00:20:19;;;;;;;45.08;22.87;;;;;;;-0.37;95.76;99823.68;1719087;82;25768;-76
2022/12/11 00:22:46;;;;;;;43.30;22.37;;;;;;;-0.36;95.76;99827.95;1706481;82;27469;-76
2022/12/11 00:25:12;;;;;;;39.65;19.82;;;;;;;-0.34;95.70;99824.23;1725455;82;25924;-76
2022/12/11 00:27:39;;;;;;;41.55;21.15;;;;;;;-0.35;95.53;99820.43;1696366;82;26307;-76
2022/12/11 00:30:06;;;;;;;42.40;21.73;;;;;;;-0.35;95.59;99825.22;1723927;81;25840;-76
2022/12/11 00:32:33;;;;;;;40.92;20.48;;;;;;;-0.36;95.38;99817.44;1698743;82;25943;-76
2022/12/11 00:34:59;;;;;;;45.12;22.73;;;;;;;-0.41;95.29;99821.81;1719842;81;27635;-76
2022/12/11 00:37:25;;;;;;;39.53;20.48;;;;;;;-0.45;95.23;99820.40;1720121;82;25942;-76
2022/12/11 00:39:52;;;;;;;43.98;21.65;;;;;;;-0.50;95.17;99815.20;1726548;81;26353;-76
2022/12/11 00:42:18;;;;;;;43.02;22.32;;;;;;;-0.55;95.19;99826.61;1687859;82;26445;-76
2022/12/11 00:44:44;;;;;;;43.02;21.27;;;;;;;-0.60;95.26;99820.94;1723192;82;25934;-76
2022/12/11 00:47:11;;;;;;;42.80;22.50;;;;;;;-0.61;95.42;99817.47;1708202;83;28422;-76
2022/12/11 00:49:37;;;;;;;45.20;22.13;;;;;;;-0.63;95.44;99815.46;1722258;81;25721;-76
2022/12/11 00:52:04;;;;;;;45.05;22.17;;;;;;;-0.64;95.59;99805.89;1719685;81;26170;-76
2022/12/11 00:54:30;;;;;;;48.63;24.27;;;;;;;-0.62;95.70;99815.80;1726745;82;25920;-76
2022/12/11 00:56:56;;;;;;;46.00;23.05;;;;;;;-0.62;95.76;99803.16;1704409;82;26310;-76
2022/12/11 00:59:23;;;;;;;42.78;22.25;;;;;;;-0.61;95.80;99811.37;1727468;82;27633;-76
2022/12/11 01:01:51;;;;;;;49.25;25.12;;;;;;;-0.63;95.71;99818.56;1696450;82;25811;-76
2022/12/11 01:04:17;;;;;;;52.62;24.85;;;;;;;-0.69;95.73;99818.64;1712035;82;25296;-76
2022/12/11 01:06:43;;;;;;;44.08;21.65;;;;;;;-0.73;95.85;99814.62;1718325;81;26541;-76
2022/12/11 01:11:54;;;;;;;55.98;26.93;;;;;;;-0.72;96.12;99825.47;1721672;82;28265;-76
2022/12/11 01:14:21;;;;;;;47.10;23.07;;;;;;;-0.77;96.06;99819.29;1724640;82;25732;-76
2022/12/11 01:16:47;;;;;;;48.85;23.60;;;;;;;-0.73;96.30;99811.98;1725461;82;25806;-76
2022/12/11 01:19:13;;;;;;;52.00;25.12;;;;;;;-0.72;96.22;99814.11;1728516;82;26472;-76
2022/12/11 01:21:40;;;;;;;48.60;25.57;;;;;;;-0.75;96.12;99819.18;1722611;81;25860;-77
2022/12/11 01:24:06;;;;;;;48.68;24.30;;;;;;;-0.83;96.16;99817.20;1723727;81;27463;-77
2022/12/11 01:26:32;;;;;;;43.00;21.70;;;;;;;-0.85;96.21;99817.82;1727493;82;25737;-76
2022/12/11 01:28:59;;;;;;;47.27;21.48;;;;;;;-0.88;96.29;99812.81;1724111;82;25820;-76
2022/12/11 01:31:25;;;;;;;45.38;21.95;;;;;;;-0.92;96.24;99804.05;1719150;82;25807;-76
2022/12/11 01:33:54;;;;;;;50.28;22.73;;;;;;;-0.93;96.35;99803.20;1727035;81;25832;-76
2022/12/11 01:36:22;;;;;;;51.08;21.90;;;;;;;-0.94;96.35;99794.95;1728801;81;27510;-76
2022/12/11 01:38:49;;;;;;;43.23;20.75;;;;;;;-0.95;96.41;99789.37;1720582;82;25986;-76
2022/12/11 01:41:18;;;;;;;46.85;22.32;;;;;;;-0.97;96.47;99778.16;1709134;83;26462;-76
2022/12/11 01:44:17;;;;;;;48.30;21.45;;;;;;;-0.99;96.44;99781.40;1692258;83;25823;-76
2022/12/11 01:46:44;;;;;;;52.00;24.50;;;;;;;-1.03;96.53;99774.75;1703641;82;25763;-76
2022/12/11 01:49:13;;;;;;;48.08;22.67;;;;;;;-1.06;96.64;99775.48;1721428;81;27651;-76
2022/12/11 01:51:47;;;;;;;47.33;21.50;;;;;;;-1.07;96.78;99767.27;1721179;82;25772;-76
2022/12/11 01:54:16;;;;;;;46.33;20.40;;;;;;;-1.07;96.92;99758.06;1727812;81;25764;-76
2022/12/11 01:56:45;;;;;;;47.05;23.10;;;;;;;-1.06;97.01;99753.14;1717648;81;25763;-76
2022/12/11 01:59:16;;;;;;;44.20;20.00;;;;;;;-1.07;96.99;99750.19;1699465;82;26117;-76
2022/12/11 02:01:49;;;;;;;47.55;21.10;;;;;;;-1.08;97.07;99755.91;1708464;83;28421;-76
2022/12/11 02:04:16;;;;;;;49.67;22.35;;;;;;;-1.07;97.10;99757.56;1697005;82;26446;-76
2022/12/11 02:06:48;;;;;;;46.88;21.57;;;;;;;-1.06;97.18;99750.04;1727637;82;25744;-76
2022/12/11 02:09:19;;;;;;;46.00;20.97;;;;;;;-1.02;97.23;99756.69;1722669;82;25983;-76
2022/12/11 02:12:24;;;;;;;42.58;18.67;;;;;;;-1.03;97.11;99741.06;1726951;81;25984;-76
2022/12/11 02:15:13;;;;;;;47.62;21.40;;;;;;;-1.05;97.06;99750.37;1710891;82;27477;-76
2022/12/11 02:18:06;;;;;;;43.17;19.35;;;;;;;-1.11;97.10;99740.40;1724521;82;25848;-76
2022/12/11 02:20:55;;;;;;;39.60;18.70;;;;;;;-1.17;97.22;99743.56;1728486;81;25699;-77
2022/12/11 02:23:42;;;;;;;46.75;20.30;;;;;;;-1.23;97.32;99745.42;1725908;81;25813;-77
2022/12/11 02:26:43;;;;;;;39.95;17.10;;;;;;;-1.26;97.47;99743.55;1717825;82;26337;-76
2022/12/11 02:29:15;;;;;;;43.63;18.50;;;;;;;-1.27;97.63;99744.50;1722907;82;27478;-77
2022/12/11 02:31:53;;;;;;;43.50;17.75;;;;;;;-1.26;97.79;99748.80;1703068;82;26372;-77
2022/12/11 02:34:34;;;;;;;42.08;18.37;;;;;;;-1.28;97.84;99747.59;1709833;82;26575;-77
2022/12/11 02:37:05;;;;;;;44.88;18.35;;;;;;;-1.29;97.93;99743.33;1725313;81;25812;-77
2022/12/11 02:39:35;;;;;;;40.45;18.42;;;;;;;-1.26;98.06;99736.98;1700497;82;25932;-77
2022/12/11 02:42:03;;;;;;;40.00;18.57;;;;;;;-1.25;98.05;99735.53;1723567;81;27458;-77
2022/12/11 02:44:33;;;;;;;38.98;17.50;;;;;;;-1.26;97.95;99729.91;1684721;83;25870;-77
2022/12/11 02:47:02;;;;;;;39.25;17.20;;;;;;;-1.30;97.86;99726.36;1723703;81;26505;-77
2022/12/11 02:49:30;;;;;;;37.13;16.97;;;;;;;-1.34;97.91;99725.81;1724495;82;25831;-77
2022/12/11 02:52:00;;;;;;;41.83;18.23;;;;;;;-1.35;97.96;99724.16;1723283;82;25940;-77
2022/12/11 02:54:31;;;;;;;38.98;17.17;;;;;;;-1.35;98.01;99725.47;1718239;82;27432;-77
2022/12/11 02:57:08;;;;;;;38.02;16.82;;;;;;;-1.37;97.87;99726.09;1715350;82;25750;-77
2022/12/11 02:59:41;;;;;;;37.15;17.60;;;;;;;-1.38;97.98;99724.41;1693566;82;26429;-77
2022/12/11 03:02:08;;;;;;;36.40;17.00;;;;;;;-1.39;97.88;99722.73;1724024;81;25844;-77
2022/12/11 03:04:36;;;;;;;38.65;17.73;;;;;;;-1.40;97.83;99718.47;1693347;82;25738;-76
2022/12/11 03:07:10;;;;;;;39.70;17.00;;;;;;;-1.39;97.85;99726.67;1726273;82;28268;-77
2022/12/11 03:09:38;;;;;;;38.17;17.25;;;;;;;-1.36;97.91;99732.99;1726744;81;26144;-76
2022/12/11 03:12:09;;;;;;;42.25;19.23;;;;;;;-1.35;97.91;99724.16;1703870;82;25839;-76
2022/12/11 03:14:37;;;;;;;35.92;17.00;;;;;;;-1.36;97.80;99730.36;1716798;81;25817;-76
2022/12/11 03:17:16;;;;;;;41.00;17.00;;;;;;;-1.39;97.79;99724.05;1727854;81;25810;-77
2022/12/11 03:20:08;;;;;;;31.85;15.60;;;;;;;-1.40;97.78;99730.28;1725504;81;26965;-75
2022/12/11 03:22:43;;;;;;;35.13;15.32;;;;;;;-1.41;97.79;99731.73;1694767;82;26069;-75
2022/12/11 03:25:20;;;;;;;41.50;16.95;;;;;;;-1.43;97.84;99738.92;1728004;81;25889;-76
2022/12/11 03:27:55;;;;;;;38.98;17.02;;;;;;;-1.46;97.91;99745.27;1722385;81;25766;-76
2022/12/11 03:30:24;;;;;;;38.20;16.67;;;;;;;-1.46;97.95;99733.92;1713739;82;25720;-75
2022/12/11 03:32:58;;;;;;;36.77;17.98;;;;;;;-1.46;98.02;99733.45;1700328;82;27428;-76
2022/12/11 03:35:32;;;;;;;42.15;18.73;;;;;;;-1.47;98.00;99743.58;1695172;83;26515;-76
2022/12/11 03:38:04;;;;;;;42.13;18.25;;;;;;;-1.50;97.95;99744.34;1727873;82;25269;-76
2022/12/11 03:40:34;;;;;;;35.70;16.95;;;;;;;-1.51;98.08;99740.03;1734697;81;25824;-76
2022/12/11 03:43:02;;;;;;;39.55;15.48;;;;;;;-1.53;98.10;99736.23;1700774;81;25754;-75
2022/12/11 03:45:29;;;;;;;36.70;17.27;;;;;;;-1.56;98.05;99747.83;1724831;82;27472;-75
2022/12/11 03:47:58;;;;;;;35.13;16.32;;;;;;;-1.58;97.95;99735.31;1730475;81;25789;-76
2022/12/11 03:50:28;;;;;;;35.70;15.80;;;;;;;-1.60;97.98;99737.23;1718738;81;25787;-75
2022/12/11 03:52:55;;;;;;;34.15;14.80;;;;;;;-1.60;97.98;99733.30;1687812;82;25821;-76
2022/12/11 03:55:22;;;;;;;35.43;16.67;;;;;;;-1.60;98.01;99738.55;1694191;83;25926;-76
2022/12/11 03:57:49;;;;;;;33.15;15.50;;;;;;;-1.64;97.86;99721.88;1713472;81;28431;-75
2022/12/11 04:00:19;;;;;;;32.58;14.55;;;;;;;-1.67;97.92;99732.16;1694527;82;25856;-76
2022/12/11 04:03:11;;;;;;;29.45;13.85;;;;;;;-1.67;97.86;99726.09;1723724;82;25821;-76
2022/12/11 04:05:14;;;;;;;33.67;16.02;;;;;;;-1.68;97.96;99720.48;1721722;82;25789;-75
2022/12/11 04:07:40;;;;;;;33.95;14.33;;;;;;;-1.70;97.95;99723.24;1721799;82;25948;-76
2022/12/11 04:10:07;;;;;;;28.62;13.48;;;;;;;-1.70;97.99;99715.84;1724847;82;27503;-76
2022/12/11 04:12:33;;;;;;;36.58;15.40;;;;;;;-1.69;97.94;99714.89;1734733;82;26431;-76
2022/12/11 04:15:02;;;;;;;34.18;15.70;;;;;;;-1.69;97.97;99709.64;1727913;81;25753;-75
2022/12/11 04:26:04;;;;;;;30.55;14.55;;;;;;;-1.70;98.02;99714.52;1724920;81;25872;-75
2022/12/11 04:28:31;;;;;;;38.38;16.80;;;;;;;-1.72;97.96;99710.73;1727586;81;25894;-76
2022/12/11 04:30:57;;;;;;;28.32;14.78;;;;;;;-1.72;97.97;99713.83;1732970;82;26474;-76
2022/12/11 04:33:23;;;;;;;30.68;14.85;;;;;;;-1.71;97.97;99711.56;1719931;82;26466;-76
2022/12/11 04:35:50;;;;;;;34.88;16.42;;;;;;;-1.72;97.92;99711.20;1726059;81;28258;-75
2022/12/11 04:38:16;;;;;;;33.38;15.28;;;;;;;-1.72;97.96;99713.83;1702502;82;25865;-76
2022/12/11 04:40:42;;;;;;;35.23;15.70;;;;;;;-1.71;98.00;99712.37;1727807;81;26279;-75
2022/12/11 04:43:09;;;;;;;35.20;16.87;;;;;;;-1.70;98.03;99708.80;1726008;81;26807;-76
2022/12/11 04:45:35;;;;;;;37.73;15.18;;;;;;;-1.70;98.01;99714.05;1724915;82;25291;-76
2022/12/11 04:48:01;;;;;;;35.83;16.32;;;;;;;-1.66;98.10;99711.98;1706456;81;27430;-76
2022/12/11 04:50:28;;;;;;;40.92;17.42;;;;;;;-1.68;98.01;99712.13;1714378;82;25735;-75
2022/12/11 04:52:55;;;;;;;36.63;17.45;;;;;;;-1.69;98.07;99705.70;1718742;81;25746;-75
2022/12/11 04:55:22;;;;;;;36.13;17.40;;;;;;;-1.71;98.08;99708.44;1706078;81;25865;-75
2022/12/11 04:57:48;;;;;;;34.80;17.40;;;;;;;-1.72;98.11;99708.10;1703306;82;25850;-76
2022/12/11 05:00:16;;;;;;;38.20;17.50;;;;;;;-1.68;98.25;99706.04;1714292;81;27452;-75
2022/12/11 05:02:42;;;;;;;42.60;18.30;;;;;;;-1.67;98.34;99701.95;1716176;82;25871;-76
2022/12/11 05:05:10;;;;;;;42.05;18.00;;;;;;;-1.64;98.37;99703.50;1726309;81;25792;-76
2022/12/11 05:07:37;;;;;;;40.00;18.32;;;;;;;-1.61;98.40;99693.58;1721149;81;26443;-76
2022/12/11 05:10:06;;;;;;;38.50;18.00;;;;;;;-1.59;98.36;99687.72;1701423;83;25787;-75
2022/12/11 05:12:32;;;;;;;43.52;19.42;;;;;;;-1.60;98.25;99679.95;1717056;81;27423;-75
2022/12/11 05:14:58;;;;;;;40.50;17.23;;;;;;;-1.67;98.18;99677.02;1719913;82;25816;-76
2022/12/11 05:17:25;;;;;;;39.78;18.48;;;;;;;-1.69;98.29;99672.38;1704108;81;26074;-76
2022/12/11 05:19:51;;;;;;;31.65;15.45;;;;;;;-1.71;98.38;99673.50;1708514;82;25849;-75
2022/12/11 05:22:18;;;;;;;41.15;18.20;;;;;;;-1.74;98.39;99664.09;1715501;82;26486;-75
2022/12/11 05:24:45;;;;;;;36.90;16.45;;;;;;;-1.76;98.36;99665.18;1713545;82;27452;-75
2022/12/11 05:27:11;;;;;;;36.45;16.90;;;;;;;-1.76;98.48;99669.95;1717514;81;26465;-75
2022/12/11 05:29:37;;;;;;;34.60;17.30;;;;;;;-1.78;98.41;99664.48;1720127;82;25815;-75
2022/12/11 05:32:04;;;;;;;36.33;17.25;;;;;;;-1.82;98.31;99663.89;1723387;82;26521;-76
2022/12/11 05:34:31;;;;;;;35.50;17.15;;;;;;;-1.81;98.42;99660.32;1696339;81;25885;-76
2022/12/11 05:36:58;;;;;;;36.38;17.27;;;;;;;-1.79;98.41;99657.08;1713928;82;27451;-76
2022/12/11 05:39:24;;;;;;;34.78;17.15;;;;;;;-1.78;98.32;99654.82;1712640;82;25838;-75
2022/12/11 05:41:50;;;;;;;29.85;14.45;;;;;;;-1.82;98.25;99644.20;1720608;82;25756;-76
2022/12/11 05:44:17;;;;;;;30.43;14.47;;;;;;;-1.75;98.24;99650.60;1723287;82;26518;-75
2022/12/11 05:46:43;;;;;;;39.08;18.10;;;;;;;-1.76;98.23;99650.74;1719944;82;26401;-76
2022/12/11 05:49:10;;;;;;;43.28;19.42;;;;;;;-1.76;98.29;99646.80;1723799;82;27448;-76
2022/12/11 05:51:38;;;;;;;39.83;17.55;;;;;;;-1.80;98.21;99645.41;1721923;82;25922;-76
2022/12/11 05:54:04;;;;;;;38.50;19.02;;;;;;;-1.85;98.20;99643.65;1715830;82;25829;-75
2022/12/11 05:56:33;;;;;;;44.08;18.35;;;;;;;-1.88;98.30;99640.80;1712064;82;25832;-76
2022/12/11 05:59:01;;;;;;;36.88;16.67;;;;;;;-1.89;98.40;99639.62;1717318;82;26287;-76
2022/12/11 06:01:33;;;;;;;36.93;17.98;;;;;;;-1.89;98.50;99644.88;1696925;81;27469;-75
2022/12/11 06:04:00;;;;;;;36.03;16.45;;;;;;;-1.92;98.61;99642.03;1716014;82;25872;-76
2022/12/11 06:06:27;;;;;;;44.05;17.70;;;;;;;-1.95;98.63;99642.31;1714845;82;25416;-75
2022/12/11 06:08:56;;;;;;;42.85;19.57;;;;;;;-1.97;98.75;99648.17;1718198;82;25941;-76
2022/12/11 06:11:24;;;;;;;39.70;16.55;;;;;;;-1.95;98.89;99648.88;1702214;81;26492;-75
2022/12/11 06:13:51;;;;;;;38.67;17.23;;;;;;;-1.96;98.87;99641.95;1711441;82;28849;-75
2022/12/11 06:16:18;;;;;;;34.85;16.07;;;;;;;-1.98;98.79;99641.72;1718502;82;25783;-75
2022/12/11 06:18:45;;;;;;;36.33;15.98;;;;;;;-2.01;98.86;99638.88;1722971;82;25929;-76
2022/12/11 06:21:15;;;;;;;40.95;17.32;;;;;;;-2.05;98.87;99641.92;1716246;82;26330;-76
2022/12/11 06:23:43;;;;;;;35.63;16.15;;;;;;;-2.07;99.00;99632.84;1729504;81;25821;-76
2022/12/11 06:26:11;;;;;;;40.73;18.50;;;;;;;-2.08;99.09;99646.09;1724798;82;28364;-75
2022/12/11 06:28:37;;;;;;;38.45;17.80;;;;;;;-2.12;99.04;99635.52;1736542;81;26594;-76
2022/12/11 06:31:05;;;;;;;34.25;16.37;;;;;;;-2.13;99.14;99635.16;1727926;81;25415;-76
2022/12/11 06:33:32;;;;;;;43.73;19.65;;;;;;;-2.13;99.24;99633.84;1715738;82;26522;-75
2022/12/11 06:36:12;;;;;;;37.38;17.70;;;;;;;-2.13;99.36;99633.37;1729606;81;25784;-75
2022/12/11 06:38:40;;;;;;;37.03;17.40;;;;;;;-2.17;99.12;99637.69;1733060;81;27438;-75
2022/12/11 06:41:08;;;;;;;33.67;15.85;;;;;;;-2.21;99.10;99638.91;1695837;82;25949;-75
2022/12/11 06:43:37;;;;;;;34.23;16.35;;;;;;;-2.27;99.07;99635.03;1723068;81;26566;-75
2022/12/11 06:46:13;;;;;;;32.40;15.32;;;;;;;-2.30;99.21;99637.89;1708925;82;26126;-75
2022/12/11 06:48:43;;;;;;;30.95;13.98;;;;;;;-2.27;99.40;99645.52;1723498;81;25967;-75
2022/12/11 06:51:17;;;;;;;37.73;16.82;;;;;;;-2.29;99.39;99644.81;1731887;82;27456;-76
2022/12/11 06:53:44;;;;;;;33.70;15.48;;;;;;;-2.33;99.35;99643.38;1729637;81;25867;-75
2022/12/11 06:56:14;;;;;;;38.08;16.87;;;;;;;-2.30;99.46;99640.98;1726015;82;25741;-76
2022/12/11 06:58:42;;;;;;;34.53;15.78;;;;;;;-2.33;99.39;99643.38;1724810;81;25911;-75
2022/12/11 07:01:19;;;;;;;40.67;16.87;;;;;;;-2.38;99.42;99645.11;1724858;82;26523;-76
2022/12/11 07:03:46;;;;;;;30.68;14.53;;;;;;;-2.43;99.37;99639.41;1725221;82;27443;-75
2022/12/11 07:06:13;;;;;;;40.12;17.73;;;;;;;-2.48;99.83;99645.50;1694276;82;26047;-76
2022/12/11 07:08:40;;;;;;;40.08;16.73;;;;;;;-2.51;99.94;99637.07;1727599;82;25796;-75
2022/12/11 07:11:11;;;;;;;36.10;17.98;;;;;;;-2.51;99.92;99632.66;1693443;82;25801;-76
2022/12/11 07:13:38;;;;;;;33.50;14.63;;;;;;;-2.45;100.00;99630.00;1724305;82;25853;-76
2022/12/11 07:16:09;;;;;;;35.70;16.20;;;;;;;-2.42;100.00;99633.19;1726101;81;28286;-75
2022/12/11 07:18:33;;;;;;;33.42;16.23;;;;;;;-2.42;99.94;99634.49;1724245;81;26385;-76
2022/12/11 07:20:59;;;;;;;34.30;14.78;;;;;;;-2.42;99.94;99640.24;1724586;81;25854;-75
2022/12/11 07:23:27;;;;;;;34.23;16.05;;;;;;;-2.40;99.98;99632.61;1723106;81;25923;-76
2022/12/11 07:25:54;;;;;;;33.90;16.67;;;;;;;-2.41;99.88;99628.30;1722244;82;25785;-75
2022/12/11 07:28:21;;;;;;;27.93;13.50;;;;;;;-2.39;99.88;99631.62;1719313;82;27518;-75
2022/12/11 07:30:47;;;;;;;31.95;15.70;;;;;;;-2.42;99.68;99627.13;1712096;82;26337;-75
2022/12/11 07:33:14;;;;;;;24.52;12.18;;;;;;;-2.44;99.63;99625.13;1728326;81;25529;-75
2022/12/11 07:35:41;;;;;;;29.52;12.45;;;;;;;-2.46;99.66;99627.85;1731444;81;25826;-75
2022/12/11 07:38:07;;;;;;;28.40;12.13;;;;;;;-2.45;99.69;99625.59;1711974;82;25854;-75
2022/12/11 07:40:34;;;;;;;24.43;13.00;;;;;;;-2.43;99.68;99622.84;1714902;82;26978;-75
2022/12/11 07:43:02;;;;;;;25.65;12.90;;;;;;;-2.40;99.70;99618.66;1725138;82;25725;-75
2022/12/11 07:45:28;;;;;;;28.65;13.38;;;;;;;-2.41;99.53;99610.42;1730580;81;25839;-75
2022/12/11 07:47:55;;;;;;;29.65;15.10;;;;;;;-2.43;99.39;99617.12;1726500;81;26547;-76
2022/12/11 07:50:21;;;;;;;30.77;14.07;;;;;;;-2.45;99.41;99619.03;1724222;82;25751;-75
2022/12/11 07:52:48;;;;;;;24.77;13.35;;;;;;;-2.46;99.35;99607.38;1719821;82;27459;-76
2022/12/11 07:55:14;;;;;;;27.77;12.65;;;;;;;-2.50;99.30;99613.34;1708391;83;25902;-76
2022/12/11 07:57:41;;;;;;;25.97;12.33;;;;;;;-2.49;99.47;99597.13;1722107;82;25801;-75
2022/12/11 08:00:09;;;;;;;32.08;14.30;;;;;;;-2.47;99.54;99600.45;1726509;82;26550;-75
2022/12/11 08:02:38;;;;;;;26.30;12.78;;;;;;;-2.49;99.38;99597.97;1730225;81;25826;-75
2022/12/11 08:05:06;;;;;;;32.33;15.13;;;;;;;-2.49;99.42;99603.69;1722972;81;27495;-75
2022/12/11 08:07:34;;;;;;;34.90;15.18;;;;;;;-2.47;99.51;99604.39;1730144;81;26598;-75
2022/12/11 08:10:02;;;;;;;32.78;14.87;;;;;;;-2.49;99.36;99607.63;1690686;82;25717;-75
2022/12/11 08:12:29;;;;;;;28.38;13.75;;;;;;;-2.49;99.47;99599.76;1717954;81;25751;-75
2022/12/11 08:14:55;;;;;;;30.68;14.23;;;;;;;-2.50;99.35;99598.08;1726579;81;25730;-76
2022/12/11 08:17:21;;;;;;;28.57;13.90;;;;;;;-2.49;99.46;99602.38;1709608;81;27446;-75
2022/12/11 08:19:48;;;;;;;31.00;14.58;;;;;;;-2.49;99.34;99597.97;1715882;82;25783;-75
2022/12/11 08:22:14;;;;;;;30.20;14.15;;;;;;;-2.49;99.23;99593.20;1727176;82;26495;-76
2022/12/11 08:24:41;;;;;;;31.97;14.58;;;;;;;-2.49;99.17;99595.35;1721472;82;25847;-73
2022/12/11 08:27:07;;;;;;;30.65;14.33;;;;;;;-2.49;99.18;99597.97;1722739;82;25937;-80
2022/12/11 08:29:33;;;;;;;31.10;14.25;;;;;;;-2.49;99.14;99590.11;1711495;81;27519;-87
2022/12/11 08:32:00;;;;;;;30.12;13.78;;;;;;;-2.45;99.14;99589.36;1730465;82;26046;-83
2022/12/11 08:34:26;;;;;;;30.00;12.55;;;;;;;-2.44;99.17;99589.72;1736102;81;25849;-85
2022/12/11 08:36:52;;;;;;;31.10;14.03;;;;;;;-2.40;99.21;99581.95;1728443;81;25943;-86
2022/12/11 08:39:19;;;;;;;28.95;13.18;;;;;;;-2.36;99.23;99585.97;1733379;81;25756;-86
2022/12/11 08:41:45;;;;;;;27.22;13.03;;;;;;;-2.33;99.13;99588.81;1699245;82;27662;-86
2022/12/11 08:44:12;;;;;;;32.48;14.73;;;;;;;-2.35;98.93;99581.05;1711223;82;26319;-87
2022/12/11 08:46:38;;;;;;;28.45;12.45;;;;;;;-2.36;98.83;99577.62;1720830;82;25280;-84
2022/12/11 08:49:04;;;;;;;30.08;13.90;;;;;;;-2.36;98.82;99578.10;1715400;82;25893;-82
2022/12/11 08:51:31;;;;;;;25.30;12.10;;;;;;;-2.35;98.68;99584.99;1722876;82;26298;-87
2022/12/11 08:54:00;;;;;;;27.93;13.60;;;;;;;-2.35;98.71;99587.61;1704000;82;27620;-81
2022/12/11 08:56:28;;;;;;;25.35;12.25;;;;;;;-2.35;98.70;99580.58;1720589;81;25884;-81
2022/12/11 08:58:59;;;;;;;26.62;12.93;;;;;;;-2.31;98.68;99573.31;1699904;81;25798;-90
2022/12/11 09:01:28;;;;;;;28.43;13.17;;;;;;;-2.32;98.61;99572.94;1719468;82;25878;-86
2022/12/11 09:03:55;;;;;;;29.98;13.58;;;;;;;-2.31;98.65;99572.00;1702479;82;25807;-80
2022/12/11 09:06:25;;;;;;;27.37;13.05;;;;;;;-2.30;98.53;99578.05;1717091;81;27435;-84
2022/12/11 09:08:53;;;;;;;27.50;14.10;;;;;;;-2.30;98.27;99583.30;1728325;81;25819;-80
2022/12/11 09:11:25;;;;;;;29.57;14.15;;;;;;;-2.32;98.05;99572.94;1715789;81;25976;-92
2022/12/11 09:13:52;;;;;;;25.12;12.05;;;;;;;-2.36;97.68;99566.30;1716675;81;25760;-86
2022/12/11 09:16:22;;;;;;;27.48;11.53;;;;;;;-2.39;97.58;99565.23;1700408;82;25633;-83
2022/12/11 09:18:51;;;;;;;30.03;14.43;;;;;;;-2.41;97.58;99569.31;1720910;81;27662;-82
2022/12/11 09:21:21;;;;;;;26.52;13.03;;;;;;;-2.44;97.34;99556.45;1712509;83;25870;-85
2022/12/11 09:23:49;;;;;;;27.63;12.97;;;;;;;-2.45;97.39;99550.03;1720436;81;25322;-86
2022/12/11 09:26:17;;;;;;;25.10;12.60;;;;;;;-2.44;97.48;99542.02;1704754;82;25833;-87
2022/12/11 09:28:44;;;;;;;23.18;12.75;;;;;;;-2.45;97.63;99539.06;1694546;83;25786;-77
2022/12/11 09:31:17;;;;;;;27.22;13.65;;;;;;;-2.42;97.80;99541.41;1702769;82;28897;-77
2022/12/11 09:33:46;;;;;;;30.32;15.40;;;;;;;-2.41;97.66;99533.07;1729234;81;25809;-87
2022/12/11 09:36:13;;;;;;;25.95;13.90;;;;;;;-2.42;97.44;99526.98;1731785;81;26017;-76
2022/12/11 09:38:39;;;;;;;26.10;13.20;;;;;;;-2.45;97.55;99525.96;1713235;82;25773;-86
2022/12/11 09:41:37;;;;;;;27.07;13.72;;;;;;;-2.39;97.47;99534.61;1738278;82;25773;-85
2022/12/11 09:44:27;;;;;;;24.05;12.95;;;;;;;-2.40;96.93;99509.84;1732599;81;28292;-78
2022/12/11 09:46:53;;;;;;;31.33;14.18;;;;;;;-2.40;96.93;99509.84;1720377;82;25596;-78
2022/12/11 09:49:25;;;;;;;29.57;14.25;;;;;;;-2.43;97.26;99517.95;1713586;81;25833;-78
2022/12/11 09:52:07;;;;;;;24.60;12.78;;;;;;;-2.47;97.21;99501.66;1724272;82;25778;-78
2022/12/11 09:54:33;;;;;;;25.35;12.88;;;;;;;-2.44;97.37;99507.94;1715961;82;25872;-78
2022/12/11 09:57:34;;;;;;;25.35;13.22;;;;;;;-2.42;97.33;99502.59;1722365;82;28247;-78
2022/12/11 10:00:16;;;;;;;;;;;;;;;-2.42;97.23;99500.77;1734196;81;25817;-78
2022/12/11 10:03:16;;;;;;;26.70;13.22;;;;;;;-2.38;97.50;99510.53;1717656;82;25973;-85
2022/12/11 10:06:19;;;;;;;22.75;11.10;;;;;;;-2.45;97.17;99496.28;1740327;81;25805;-91
2022/12/11 10:09:26;;;;;;;24.43;11.90;;;;;;;-2.41;97.08;99490.64;1711136;82;25730;-76
2022/12/11 10:12:13;;;;;;;21.23;11.53;;;;;;;-2.41;97.18;99491.95;1717598;82;27535;-78
2022/12/11 10:14:55;;;;;;;28.57;12.88;;;;;;;-2.39;97.37;99491.34;1733253;81;26047;-78
2022/12/11 10:17:34;;;;;;;21.37;12.13;;;;;;;-2.44;97.18;99484.34;1718309;82;26529;-78
2022/12/11 10:20:08;;;;;;;28.23;13.30;;;;;;;-2.37;97.33;99485.95;1717799;81;26380;-78
2022/12/11 10:22:35;;;;;;;26.00;13.00;;;;;;;-2.29;97.83;99486.62;1697449;82;25699;-78
2022/12/11 10:25:06;;;;;;;22.85;10.78;;;;;;;-2.24;97.64;99492.28;1694141;83;28064;-78
2022/12/11 10:27:37;;;;;;;27.62;14.15;;;;;;;-2.23;97.32;99482.16;1725709;82;25746;-78
2022/12/11 10:30:23;;;;;;;28.92;13.90;;;;;;;-2.23;97.14;99480.84;1695989;83;25766;-78
2022/12/11 10:32:58;;;;;;;27.65;12.37;;;;;;;-2.23;97.17;99473.81;1720297;82;25781;-78
2022/12/11 10:35:42;;;;;;;25.72;13.15;;;;;;;-2.25;97.20;99460.48;1728424;82;26386;-78
2022/12/11 10:38:30;;;;;;;28.07;14.95;;;;;;;-2.21;97.25;99457.45;1722236;82;27632;-78
2022/12/11 10:41:00;;;;;;;27.52;13.50;;;;;;;-2.19;97.12;99458.15;1724390;81;25758;-78
2022/12/11 10:43:42;;;;;;;28.30;14.25;;;;;;;-2.18;97.16;99457.67;1724275;82;25832;-78
2022/12/11 10:46:22;;;;;;;23.90;12.65;;;;;;;-2.17;97.04;99450.97;1723893;81;25733;-78
2022/12/11 10:48:53;;;;;;;29.55;13.85;;;;;;;-2.19;96.85;99451.59;1722735;81;26094;-78
2022/12/11 10:51:34;;;;;;;25.80;13.45;;;;;;;-2.21;96.85;99446.13;1699850;82;28653;-78
2022/12/11 10:54:26;;;;;;;27.45;13.45;;;;;;;-2.21;96.89;99439.56;1700948;82;25842;-78
2022/12/11 10:56:54;;;;;;;26.48;13.18;;;;;;;-2.22;96.88;99436.62;1719517;82;26460;-78
2022/12/11 10:59:32;;;;;;;31.17;14.93;;;;;;;-2.21;96.98;99435.63;1709312;82;27044;-78
2022/12/11 11:01:59;;;;;;;28.42;14.70;;;;;;;-2.21;96.93;99435.63;1707910;83;25893;-78
2022/12/11 11:04:35;;;;;;;32.25;13.88;;;;;;;-2.20;97.09;99422.37;1718984;82;27613;-78
2022/12/11 11:07:21;;;;;;;26.25;13.83;;;;;;;-2.15;97.28;99428.06;1722558;81;25886;-78
2022/12/11 11:09:48;;;;;;;29.25;14.35;;;;;;;-2.12;97.11;99427.80;1712331;82;25927;-78
2022/12/11 11:12:26;;;;;;;28.10;14.63;;;;;;;-2.17;96.99;99412.10;1719755;82;25999;-78
2022/12/11 11:15:03;;;;;;;29.70;14.47;;;;;;;-2.12;97.02;99421.24;1726966;81;26416;-78
2022/12/11 11:17:31;;;;;;;28.45;14.38;;;;;;;-2.15;96.74;99404.92;1706547;82;26595;-78
2022/12/11 11:20:03;;;;;;;26.30;14.30;;;;;;;-2.14;97.08;99402.66;1725165;81;25294;-78
2022/12/11 11:22:31;;;;;;;25.50;13.40;;;;;;;-2.10;97.31;99398.33;1727483;82;25849;-78
2022/12/11 11:24:59;;;;;;;31.77;15.93;;;;;;;-2.08;97.21;99399.02;1699132;82;26580;-78
2022/12/11 11:27:35;;;;;;;26.85;13.70;;;;;;;-2.07;97.00;99391.95;1718913;82;26464;-78
2022/12/11 11:30:07;;;;;;;28.52;14.03;;;;;;;-2.07;97.07;99394.58;1719089;82;27694;-78
2022/12/11 11:32:39;;;;;;;26.62;12.55;;;;;;;-2.08;96.83;99379.81;1727383;82;26372;-80
2022/12/11 11:35:14;;;;;;;25.60;13.68;;;;;;;-2.10;96.94;99384.37;1716368;81;25863;-79
2022/12/11 11:37:45;;;;;;;20.90;10.55;;;;;;;-2.08;97.14;99376.72;1702917;83;27349;-82
2022/12/11 11:40:32;;;;;;;26.17;13.68;;;;;;;-2.07;97.01;99385.39;1723140;82;25830;-82
2022/12/11 11:43:29;;;;;;;28.50;12.30;;;;;;;-2.07;97.13;99380.14;1706719;82;27442;-82